sensor_id;sensor_type;location;lat;lon;timestamp;P1;P2;P0
60058;PMS7003;45932;50.658;3.022;2022-09-13T00:00:55;8.00;8.00;7.00
60058;PMS7003;45932;50.658;3.022;2022-09-13T00:03:22;7.00;7.00;6.00
60058;PMS7003;45932;50.658;3.022;2022-09-13T00:05:48;6.00;6.00;5.33
60058;PMS7003;45932;50.658;3.022;2022-09-13T00:08:14;6.00;5.00;5.00
60058;PMS7003;45932;50.658;3.022;2022-09-13T00:10:41;8.00;7.00;4.67
60058;PMS7003;45932;50.658;3.022;2022-09-13T00:13:07;7.00;7.00;6.00
60058;PMS7003;45932;50.658;3.022;2022-09-13T00:15:34;5.00;5.00;5.00
60058;PMS7003;45932;50.658;3.022;2022-09-13T00:17:59;8.67;7.67;5.67
60058;PMS7003;45932;50.658;3.022;2022-09-13T00:20:25;7.33;6.33;5.33
60058;PMS7003;45932;50.658;3.022;2022-09-13T00:22:51;6.00;5.00;4.00
60058;PMS7003;45932;50.658;3.022;2022-09-13T00:25:16;6.00;6.00;5.00
60058;PMS7003;45932;50.658;3.022;2022-09-13T00:27:42;6.00;6.00;5.00
60058;PMS7003;45932;50.658;3.022;2022-09-13T00:30:09;5.00;5.00;4.00
60058;PMS7003;45932;50.658;3.022;2022-09-13T00:32:35;5.33;5.33;5.00
60058;PMS7003;45932;50.658;3.022;2022-09-13T00:35:01;7.67;6.33;5.00
60058;PMS7003;45932;50.658;3.022;2022-09-13T00:37:27;7.00;7.00;5.33
60058;PMS7003;45932;50.658;3.022;2022-09-13T00:39:53;6.00;6.00;5.33
60058;PMS7003;45932;50.658;3.022;2022-09-13T00:42:23;7.00;7.00;5.00
60058;PMS7003;45932;50.658;3.022;2022-09-13T00:44:55;6.33;5.33;5.00
60058;PMS7003;45932;50.658;3.022;2022-09-13T00:47:30;7.00;7.00;5.00
60058;PMS7003;45932;50.658;3.022;2022-09-13T00:50:00;8.33;6.00;5.00
60058;PMS7003;45932;50.658;3.022;2022-09-13T00:52:31;6.00;6.00;4.67
60058;PMS7003;45932;50.658;3.022;2022-09-13T00:55:04;9.00;6.00;5.00
60058;PMS7003;45932;50.658;3.022;2022-09-13T00:57:35;7.67;7.67;6.00
60058;PMS7003;45932;50.658;3.022;2022-09-13T01:00:03;8.67;7.00;5.67
60058;PMS7003;45932;50.658;3.022;2022-09-13T01:02:49;5.67;4.67;3.00
60058;PMS7003;45932;50.658;3.022;2022-09-13T01:05:21;6.33;6.33;5.00
60058;PMS7003;45932;50.658;3.022;2022-09-13T01:07:51;6.00;6.00;5.67
60058;PMS7003;45932;50.658;3.022;2022-09-13T01:10:17;8.00;7.67;5.33
60058;PMS7003;45932;50.658;3.022;2022-09-13T01:12:46;6.33;6.33;4.33
60058;PMS7003;45932;50.658;3.022;2022-09-13T01:15:18;6.00;6.00;5.00
60058;PMS7003;45932;50.658;3.022;2022-09-13T01:17:43;6.67;6.67;5.00
60058;PMS7003;45932;50.658;3.022;2022-09-13T01:20:09;7.00;7.00;5.33
60058;PMS7003;45932;50.658;3.022;2022-09-13T01:22:38;7.00;5.00;4.33
60058;PMS7003;45932;50.658;3.022;2022-09-13T01:25:42;8.00;6.33;5.33
60058;PMS7003;45932;50.658;3.022;2022-09-13T01:40:14;7.00;7.00;5.67
60058;PMS7003;45932;50.658;3.022;2022-09-13T01:51:38;5.67;5.00;4.00
60058;PMS7003;45932;50.658;3.022;2022-09-13T01:56:57;6.67;6.67;5.00
60058;PMS7003;45932;50.658;3.022;2022-09-13T01:59:32;6.00;6.00;5.00
60058;PMS7003;45932;50.658;3.022;2022-09-13T02:02:31;5.00;5.00;4.00
60058;PMS7003;45932;50.658;3.022;2022-09-13T02:05:11;5.67;5.33;4.33
60058;PMS7003;45932;50.658;3.022;2022-09-13T02:08:08;6.33;6.33;5.00
60058;PMS7003;45932;50.658;3.022;2022-09-13T02:10:41;7.00;6.00;5.00
60058;PMS7003;45932;50.658;3.022;2022-09-13T02:13:19;7.00;5.67;4.33
60058;PMS7003;45932;50.658;3.022;2022-09-13T02:15:50;5.67;5.67;4.67
60058;PMS7003;45932;50.658;3.022;2022-09-13T02:18:25;5.33;5.33;4.67
60058;PMS7003;45932;50.658;3.022;2022-09-13T02:20:57;6.00;6.00;4.33
60058;PMS7003;45932;50.658;3.022;2022-09-13T02:23:31;6.00;6.00;4.00
60058;PMS7003;45932;50.658;3.022;2022-09-13T02:26:00;4.00;4.00;4.00
60058;PMS7003;45932;50.658;3.022;2022-09-13T02:28:31;6.00;6.00;4.67
60058;PMS7003;45932;50.658;3.022;2022-09-13T02:31:00;8.67;8.00;6.00
60058;PMS7003;45932;50.658;3.022;2022-09-13T02:33:30;8.00;7.67;5.00
60058;PMS7003;45932;50.658;3.022;2022-09-13T02:36:11;5.67;5.67;4.67
60058;PMS7003;45932;50.658;3.022;2022-09-13T02:39:02;4.00;4.00;3.00
60058;PMS7003;45932;50.658;3.022;2022-09-13T02:44:37;6.00;6.00;4.00
60058;PMS7003;45932;50.658;3.022;2022-09-13T02:57:46;7.00;7.00;5.00
60058;PMS7003;45932;50.658;3.022;2022-09-13T03:00:18;6.33;6.33;6.00
60058;PMS7003;45932;50.658;3.022;2022-09-13T03:02:43;9.00;6.67;5.67
60058;PMS7003;45932;50.658;3.022;2022-09-13T03:05:12;6.67;6.33;5.00
60058;PMS7003;45932;50.658;3.022;2022-09-13T03:07:38;6.00;6.00;5.00
60058;PMS7003;45932;50.658;3.022;2022-09-13T03:10:06;7.00;7.00;6.00
60058;PMS7003;45932;50.658;3.022;2022-09-13T03:18:30;8.00;6.67;5.67
60058;PMS7003;45932;50.658;3.022;2022-09-13T03:21:20;6.00;6.00;5.00
60058;PMS7003;45932;50.658;3.022;2022-09-13T03:29:59;7.00;7.00;5.00
60058;PMS7003;45932;50.658;3.022;2022-09-13T03:32:34;7.67;7.67;5.67
60058;PMS7003;45932;50.658;3.022;2022-09-13T03:35:22;8.33;8.33;6.00
60058;PMS7003;45932;50.658;3.022;2022-09-13T03:37:55;7.67;7.67;6.33
60058;PMS7003;45932;50.658;3.022;2022-09-13T03:40:46;10.67;9.00;7.00
60058;PMS7003;45932;50.658;3.022;2022-09-13T03:44:02;7.00;7.00;6.00
60058;PMS7003;45932;50.658;3.022;2022-09-13T03:46:41;5.00;5.00;3.00
60058;PMS7003;45932;50.658;3.022;2022-09-13T03:49:10;7.67;7.67;6.00
60058;PMS7003;45932;50.658;3.022;2022-09-13T03:51:38;7.33;7.00;5.67
60058;PMS7003;45932;50.658;3.022;2022-09-13T03:54:06;8.67;8.67;6.33
60058;PMS7003;45932;50.658;3.022;2022-09-13T03:56:38;6.33;6.33;5.33
60058;PMS7003;45932;50.658;3.022;2022-09-13T03:59:03;7.67;7.67;5.67
60058;PMS7003;45932;50.658;3.022;2022-09-13T04:01:29;9.00;9.00;7.00
60058;PMS7003;45932;50.658;3.022;2022-09-13T04:03:55;8.67;7.67;5.00
60058;PMS7003;45932;50.658;3.022;2022-09-13T04:06:20;9.33;7.67;5.33
60058;PMS7003;45932;50.658;3.022;2022-09-13T04:08:45;7.00;7.00;6.00
60058;PMS7003;45932;50.658;3.022;2022-09-13T04:11:11;8.00;6.33;5.33
60058;PMS7003;45932;50.658;3.022;2022-09-13T04:13:36;8.00;8.00;6.00
60058;PMS7003;45932;50.658;3.022;2022-09-13T04:16:03;9.67;7.33;6.00
60058;PMS7003;45932;50.658;3.022;2022-09-13T04:18:30;8.00;8.00;6.33
60058;PMS7003;45932;50.658;3.022;2022-09-13T04:20:56;10.33;7.33;5.33
60058;PMS7003;45932;50.658;3.022;2022-09-13T04:23:24;7.67;7.67;6.00
60058;PMS7003;45932;50.658;3.022;2022-09-13T04:25:50;9.00;8.33;6.67
60058;PMS7003;45932;50.658;3.022;2022-09-13T04:28:19;9.00;9.00;7.33
60058;PMS7003;45932;50.658;3.022;2022-09-13T04:30:46;8.67;7.33;6.00
60058;PMS7003;45932;50.658;3.022;2022-09-13T04:33:12;7.00;7.00;6.33
60058;PMS7003;45932;50.658;3.022;2022-09-13T04:35:38;6.00;6.00;5.67
60058;PMS7003;45932;50.658;3.022;2022-09-13T04:38:05;10.00;10.00;8.67
60058;PMS7003;45932;50.658;3.022;2022-09-13T04:40:31;9.00;8.00;6.00
60058;PMS7003;45932;50.658;3.022;2022-09-13T04:42:56;8.33;8.00;7.00
60058;PMS7003;45932;50.658;3.022;2022-09-13T04:45:22;9.00;8.00;7.00
60058;PMS7003;45932;50.658;3.022;2022-09-13T04:47:51;8.67;8.67;7.67
60058;PMS7003;45932;50.658;3.022;2022-09-13T04:50:17;8.33;8.33;6.00
60058;PMS7003;45932;50.658;3.022;2022-09-13T04:52:44;8.33;8.00;6.67
60058;PMS7003;45932;50.658;3.022;2022-09-13T04:55:10;8.67;8.67;6.00
60058;PMS7003;45932;50.658;3.022;2022-09-13T04:57:35;9.33;8.33;6.67
60058;PMS7003;45932;50.658;3.022;2022-09-13T05:00:00;7.67;7.67;5.67
60058;PMS7003;45932;50.658;3.022;2022-09-13T05:02:26;9.00;9.00;7.00
60058;PMS7003;45932;50.658;3.022;2022-09-13T05:04:52;9.67;7.00;6.00
60058;PMS7003;45932;50.658;3.022;2022-09-13T05:07:17;9.67;8.67;7.33
60058;PMS7003;45932;50.658;3.022;2022-09-13T05:09:42;8.67;8.67;6.67
60058;PMS7003;45932;50.658;3.022;2022-09-13T05:12:08;9.67;9.00;7.33
60058;PMS7003;45932;50.658;3.022;2022-09-13T05:14:33;8.00;8.00;5.33
60058;PMS7003;45932;50.658;3.022;2022-09-13T05:16:59;9.33;9.33;6.00
60058;PMS7003;45932;50.658;3.022;2022-09-13T05:19:24;11.33;8.00;5.00
60058;PMS7003;45932;50.658;3.022;2022-09-13T05:21:49;9.00;9.00;6.00
60058;PMS7003;45932;50.658;3.022;2022-09-13T05:24:15;10.33;10.00;8.00
60058;PMS7003;45932;50.658;3.022;2022-09-13T05:26:40;9.00;9.00;7.00
60058;PMS7003;45932;50.658;3.022;2022-09-13T05:29:05;7.67;7.33;6.00
60058;PMS7003;45932;50.658;3.022;2022-09-13T05:31:35;8.00;8.00;6.33
60058;PMS7003;45932;50.658;3.022;2022-09-13T05:34:07;8.00;7.67;6.33
60058;PMS7003;45932;50.658;3.022;2022-09-13T05:36:36;8.33;8.33;6.67
60058;PMS7003;45932;50.658;3.022;2022-09-13T05:39:02;11.67;10.00;7.67
60058;PMS7003;45932;50.658;3.022;2022-09-13T05:41:29;8.67;8.67;6.00
60058;PMS7003;45932;50.658;3.022;2022-09-13T05:43:54;10.33;8.00;6.00
60058;PMS7003;45932;50.658;3.022;2022-09-13T05:46:20;10.33;8.33;7.00
60058;PMS7003;45932;50.658;3.022;2022-09-13T05:48:46;8.67;8.33;7.67
60058;PMS7003;45932;50.658;3.022;2022-09-13T05:51:19;17.00;14.00;10.67
60058;PMS7003;45932;50.658;3.022;2022-09-13T05:53:46;25.00;23.00;16.00
60058;PMS7003;45932;50.658;3.022;2022-09-13T05:56:14;47.33;37.67;24.33
60058;PMS7003;45932;50.658;3.022;2022-09-13T05:58:42;52.50;42.75;27.50
60058;PMS7003;45932;50.658;3.022;2022-09-13T06:01:12;48.00;39.75;26.00
60058;PMS7003;45932;50.658;3.022;2022-09-13T06:03:38;48.00;37.50;25.50
60058;PMS7003;45932;50.658;3.022;2022-09-13T06:06:04;49.75;39.50;27.25
60058;PMS7003;45932;50.658;3.022;2022-09-13T06:08:30;36.67;33.00;21.67
60058;PMS7003;45932;50.658;3.022;2022-09-13T06:10:58;46.33;38.33;24.00
60058;PMS7003;45932;50.658;3.022;2022-09-13T06:13:28;35.33;32.33;22.00
60058;PMS7003;45932;50.658;3.022;2022-09-13T06:15:58;38.33;28.67;21.33
60058;PMS7003;45932;50.658;3.022;2022-09-13T06:18:24;35.00;33.33;21.00
60058;PMS7003;45932;50.658;3.022;2022-09-13T06:20:50;29.33;26.67;18.67
60058;PMS7003;45932;50.658;3.022;2022-09-13T06:23:21;34.67;26.67;18.33
60058;PMS7003;45932;50.658;3.022;2022-09-13T06:25:46;25.67;21.33;13.00
60058;PMS7003;45932;50.658;3.022;2022-09-13T06:28:12;27.00;19.67;14.00
60058;PMS7003;45932;50.658;3.022;2022-09-13T06:30:37;18.00;16.00;10.33
60058;PMS7003;45932;50.658;3.022;2022-09-13T06:33:02;18.00;17.00;12.67
60058;PMS7003;45932;50.658;3.022;2022-09-13T06:35:28;17.67;16.00;10.00
60058;PMS7003;45932;50.658;3.022;2022-09-13T06:37:54;14.33;14.33;12.00
60058;PMS7003;45932;50.658;3.022;2022-09-13T06:40:21;23.67;17.67;13.00
60058;PMS7003;45932;50.658;3.022;2022-09-13T06:42:47;14.67;12.33;9.00
60058;PMS7003;45932;50.658;3.022;2022-09-13T06:45:12;13.33;13.33;10.00
60058;PMS7003;45932;50.658;3.022;2022-09-13T06:47:37;12.33;12.33;9.67
60058;PMS7003;45932;50.658;3.022;2022-09-13T06:50:03;16.33;14.33;12.00
60058;PMS7003;45932;50.658;3.022;2022-09-13T06:52:28;16.00;12.67;10.00
60058;PMS7003;45932;50.658;3.022;2022-09-13T06:54:54;14.67;14.33;10.33
60058;PMS7003;45932;50.658;3.022;2022-09-13T06:57:19;15.33;14.33;10.33
60058;PMS7003;45932;50.658;3.022;2022-09-13T06:59:44;12.00;12.00;11.00
60058;PMS7003;45932;50.658;3.022;2022-09-13T07:02:10;15.33;14.67;11.67
60058;PMS7003;45932;50.658;3.022;2022-09-13T07:04:38;23.33;20.00;15.33
60058;PMS7003;45932;50.658;3.022;2022-09-13T07:07:04;25.00;23.00;16.33
60058;PMS7003;45932;50.658;3.022;2022-09-13T07:09:29;27.67;25.00;15.33
60058;PMS7003;45932;50.658;3.022;2022-09-13T07:11:55;24.00;21.33;15.00
60058;PMS7003;45932;50.658;3.022;2022-09-13T07:14:22;17.67;16.67;13.00
60058;PMS7003;45932;50.658;3.022;2022-09-13T07:16:49;19.33;19.33;13.00
60058;PMS7003;45932;50.658;3.022;2022-09-13T07:19:22;20.00;19.00;12.67
60058;PMS7003;45932;50.658;3.022;2022-09-13T07:21:53;17.00;16.67;12.00
60058;PMS7003;45932;50.658;3.022;2022-09-13T07:24:20;15.33;14.67;11.67
60058;PMS7003;45932;50.658;3.022;2022-09-13T07:26:46;15.33;14.67;11.33
60058;PMS7003;45932;50.658;3.022;2022-09-13T07:29:14;19.67;17.33;12.33
60058;PMS7003;45932;50.658;3.022;2022-09-13T07:31:43;14.33;13.00;9.67
60058;PMS7003;45932;50.658;3.022;2022-09-13T07:34:17;12.33;12.33;10.00
60058;PMS7003;45932;50.658;3.022;2022-09-13T07:36:47;13.67;13.00;10.00
60058;PMS7003;45932;50.658;3.022;2022-09-13T07:39:13;10.67;10.67;8.33
60058;PMS7003;45932;50.658;3.022;2022-09-13T07:41:40;19.33;15.33;12.00
60058;PMS7003;45932;50.658;3.022;2022-09-13T07:44:06;13.00;11.67;8.67
60058;PMS7003;45932;50.658;3.022;2022-09-13T07:46:34;12.33;12.00;8.00
60058;PMS7003;45932;50.658;3.022;2022-09-13T07:49:08;13.00;10.33;8.67
60058;PMS7003;45932;50.658;3.022;2022-09-13T07:51:39;11.67;11.67;8.33
60058;PMS7003;45932;50.658;3.022;2022-09-13T07:54:06;12.33;12.33;9.33
60058;PMS7003;45932;50.658;3.022;2022-09-13T07:56:36;12.67;12.67;9.33
60058;PMS7003;45932;50.658;3.022;2022-09-13T07:59:03;14.33;13.33;10.00
60058;PMS7003;45932;50.658;3.022;2022-09-13T08:01:34;15.00;13.00;8.67
60058;PMS7003;45932;50.658;3.022;2022-09-13T08:04:03;12.67;12.67;9.67
60058;PMS7003;45932;50.658;3.022;2022-09-13T08:06:31;14.33;13.33;9.00
60058;PMS7003;45932;50.658;3.022;2022-09-13T08:08:57;17.67;15.00;11.00
60058;PMS7003;45932;50.658;3.022;2022-09-13T08:11:27;18.00;12.33;10.00
60058;PMS7003;45932;50.658;3.022;2022-09-13T08:13:57;14.00;12.67;9.67
60058;PMS7003;45932;50.658;3.022;2022-09-13T08:16:23;14.00;12.33;9.00
60058;PMS7003;45932;50.658;3.022;2022-09-13T08:18:50;12.67;12.67;10.33
60058;PMS7003;45932;50.658;3.022;2022-09-13T08:21:18;13.00;13.00;9.00
60058;PMS7003;45932;50.658;3.022;2022-09-13T08:23:43;14.33;14.33;11.00
60058;PMS7003;45932;50.658;3.022;2022-09-13T08:26:10;13.00;13.00;10.00
60058;PMS7003;45932;50.658;3.022;2022-09-13T08:28:37;12.33;11.00;8.67
60058;PMS7003;45932;50.658;3.022;2022-09-13T08:31:14;15.67;13.33;9.67
60058;PMS7003;45932;50.658;3.022;2022-09-13T08:33:46;14.33;13.33;10.00
60058;PMS7003;45932;50.658;3.022;2022-09-13T08:36:15;11.67;11.67;8.67
60058;PMS7003;45932;50.658;3.022;2022-09-13T08:38:47;12.67;11.67;9.00
60058;PMS7003;45932;50.658;3.022;2022-09-13T08:41:18;11.67;11.67;9.33
60058;PMS7003;45932;50.658;3.022;2022-09-13T08:46:54;14.67;14.67;10.67
60058;PMS7003;45932;50.658;3.022;2022-09-13T08:49:40;13.67;13.67;10.67
60058;PMS7003;45932;50.658;3.022;2022-09-13T08:54:35;12.00;12.00;9.00
60058;PMS7003;45932;50.658;3.022;2022-09-13T08:57:09;13.67;13.00;10.00
60058;PMS7003;45932;50.658;3.022;2022-09-13T09:05:04;13.33;12.67;10.00
60058;PMS7003;45932;50.658;3.022;2022-09-13T09:07:35;24.67;18.33;13.67
60058;PMS7003;45932;50.658;3.022;2022-09-13T09:10:12;16.00;16.00;12.00
60058;PMS7003;45932;50.658;3.022;2022-09-13T09:15:12;19.00;16.33;11.00
60058;PMS7003;45932;50.658;3.022;2022-09-13T09:17:57;18.00;15.67;12.33
60058;PMS7003;45932;50.658;3.022;2022-09-13T09:20:31;17.00;17.00;12.67
60058;PMS7003;45932;50.658;3.022;2022-09-13T09:23:02;23.33;18.33;13.00
60058;PMS7003;45932;50.658;3.022;2022-09-13T09:25:31;16.00;16.00;11.67
60058;PMS7003;45932;50.658;3.022;2022-09-13T09:27:58;18.67;17.00;12.33
60058;PMS7003;45932;50.658;3.022;2022-09-13T09:30:25;18.67;18.00;12.67
60058;PMS7003;45932;50.658;3.022;2022-09-13T09:35:58;19.67;17.33;13.67
60058;PMS7003;45932;50.658;3.022;2022-09-13T09:38:41;21.00;16.00;13.33
60058;PMS7003;45932;50.658;3.022;2022-09-13T09:41:12;17.00;14.33;10.00
60058;PMS7003;45932;50.658;3.022;2022-09-13T09:43:46;18.00;14.67;10.33
60058;PMS7003;45932;50.658;3.022;2022-09-13T09:46:13;17.67;17.00;11.67
60058;PMS7003;45932;50.658;3.022;2022-09-13T09:48:45;19.33;16.33;12.33
60058;PMS7003;45932;50.658;3.022;2022-09-13T09:51:15;18.67;15.67;12.00
60058;PMS7003;45932;50.658;3.022;2022-09-13T09:53:44;14.67;14.67;10.33
60058;PMS7003;45932;50.658;3.022;2022-09-13T09:56:23;13.33;13.33;10.33
60058;PMS7003;45932;50.658;3.022;2022-09-13T09:58:50;14.00;13.67;9.67
60058;PMS7003;45932;50.658;3.022;2022-09-13T10:01:22;13.67;12.00;9.00
60058;PMS7003;45932;50.658;3.022;2022-09-13T10:04:05;14.00;14.00;10.00
60058;PMS7003;45932;50.658;3.022;2022-09-13T10:06:43;13.00;11.33;8.33
60058;PMS7003;45932;50.658;3.022;2022-09-13T10:14:21;18.00;15.33;10.33
60058;PMS7003;45932;50.658;3.022;2022-09-13T10:19:58;12.67;12.33;8.00
60058;PMS7003;45932;50.658;3.022;2022-09-13T10:22:45;12.00;10.33;7.33
60058;PMS7003;45932;50.658;3.022;2022-09-13T10:25:35;18.00;16.00;10.67
60058;PMS7003;45932;50.658;3.022;2022-09-13T10:28:01;14.33;14.00;10.00
60058;PMS7003;45932;50.658;3.022;2022-09-13T10:35:48;13.33;11.67;10.33
60058;PMS7003;45932;50.658;3.022;2022-09-13T10:38:19;14.00;13.00;9.00
60058;PMS7003;45932;50.658;3.022;2022-09-13T10:40:51;15.00;15.00;10.00
60058;PMS7003;45932;50.658;3.022;2022-09-13T10:43:16;12.00;10.00;9.00
60058;PMS7003;45932;50.658;3.022;2022-09-13T10:45:44;11.33;11.33;7.33
60058;PMS7003;45932;50.658;3.022;2022-09-13T10:48:15;12.00;11.00;8.33
60058;PMS7003;45932;50.658;3.022;2022-09-13T10:53:45;15.33;15.33;11.67
60058;PMS7003;45932;50.658;3.022;2022-09-13T10:56:21;15.67;13.33;10.00
60058;PMS7003;45932;50.658;3.022;2022-09-13T10:58:49;17.33;14.00;10.00
60058;PMS7003;45932;50.658;3.022;2022-09-13T11:07:07;19.67;17.67;12.00
60058;PMS7003;45932;50.658;3.022;2022-09-13T11:10:13;19.00;18.33;12.00
60058;PMS7003;45932;50.658;3.022;2022-09-13T11:13:20;12.67;12.67;7.33
60058;PMS7003;45932;50.658;3.022;2022-09-13T11:16:04;19.67;17.00;12.00
60058;PMS7003;45932;50.658;3.022;2022-09-13T11:18:48;14.00;12.33;9.33
60058;PMS7003;45932;50.658;3.022;2022-09-13T11:21:45;16.33;15.33;11.33
60058;PMS7003;45932;50.658;3.022;2022-09-13T11:24:45;16.00;14.67;11.67
60058;PMS7003;45932;50.658;3.022;2022-09-13T11:32:48;23.00;20.67;14.33
60058;PMS7003;45932;50.658;3.022;2022-09-13T11:35:20;20.67;20.00;13.67
60058;PMS7003;45932;50.658;3.022;2022-09-13T11:43:16;20.67;20.67;16.00
60058;PMS7003;45932;50.658;3.022;2022-09-13T11:50:56;23.67;21.33;14.33
60058;PMS7003;45932;50.658;3.022;2022-09-13T11:56:17;19.67;18.00;13.00
60058;PMS7003;45932;50.658;3.022;2022-09-13T12:01:48;18.33;18.33;13.00
60058;PMS7003;45932;50.658;3.022;2022-09-13T12:04:21;20.00;18.00;12.00
60058;PMS7003;45932;50.658;3.022;2022-09-13T12:06:54;26.00;21.33;14.33
60058;PMS7003;45932;50.658;3.022;2022-09-13T12:09:30;22.33;19.67;14.67
60058;PMS7003;45932;50.658;3.022;2022-09-13T12:12:04;21.00;20.33;15.33
60058;PMS7003;45932;50.658;3.022;2022-09-13T12:14:40;20.33;20.33;15.33
60058;PMS7003;45932;50.658;3.022;2022-09-13T12:17:14;23.33;23.33;16.00
60058;PMS7003;45932;50.658;3.022;2022-09-13T12:19:56;25.33;24.33;17.67
60058;PMS7003;45932;50.658;3.022;2022-09-13T12:22:25;19.33;19.00;14.00
60058;PMS7003;45932;50.658;3.022;2022-09-13T12:24:55;22.33;21.00;15.00
60058;PMS7003;45932;50.658;3.022;2022-09-13T12:27:26;21.67;21.67;15.67
60058;PMS7003;45932;50.658;3.022;2022-09-13T12:32:43;19.00;18.00;12.67
60058;PMS7003;45932;50.658;3.022;2022-09-13T12:41:18;16.00;16.00;13.00
60058;PMS7003;45932;50.658;3.022;2022-09-13T13:03:31;14.67;11.00;8.33
60058;PMS7003;45932;50.658;3.022;2022-09-13T13:07:02;13.67;10.67;8.67
60058;PMS7003;45932;50.658;3.022;2022-09-13T13:09:06;11.67;11.00;9.00
60058;PMS7003;45932;50.658;3.022;2022-09-13T13:11:47;16.67;13.00;10.00
60058;PMS7003;45932;50.658;3.022;2022-09-13T13:14:29;14.67;13.67;9.33
60058;PMS7003;45932;50.658;3.022;2022-09-13T13:20:37;16.67;13.67;9.33
60058;PMS7003;45932;50.658;3.022;2022-09-13T13:23:12;16.33;12.00;7.67
60058;PMS7003;45932;50.658;3.022;2022-09-13T13:25:59;13.33;12.33;9.33
60058;PMS7003;45932;50.658;3.022;2022-09-13T13:36:47;13.67;10.67;9.00
60058;PMS7003;45932;50.658;3.022;2022-09-13T13:46:44;11.67;11.67;9.00
60058;PMS7003;45932;50.658;3.022;2022-09-13T13:59:50;13.67;13.33;10.00
60058;PMS7003;45932;50.658;3.022;2022-09-13T14:02:21;14.67;13.67;10.67
60058;PMS7003;45932;50.658;3.022;2022-09-13T14:10:44;17.67;15.67;11.00
60058;PMS7003;45932;50.658;3.022;2022-09-13T14:13:42;26.00;22.33;14.67
60058;PMS7003;45932;50.658;3.022;2022-09-13T14:16:30;22.00;21.00;14.67
60058;PMS7003;45932;50.658;3.022;2022-09-13T14:22:23;31.33;27.67;19.33
60058;PMS7003;45932;50.658;3.022;2022-09-13T14:24:53;26.00;24.67;17.33
60058;PMS7003;45932;50.658;3.022;2022-09-13T14:27:26;30.00;28.33;19.67
60058;PMS7003;45932;50.658;3.022;2022-09-13T14:30:04;31.33;26.67;17.33
60058;PMS7003;45932;50.658;3.022;2022-09-13T14:32:47;32.00;30.33;20.33
60058;PMS7003;45932;50.658;3.022;2022-09-13T14:40:50;28.00;28.00;19.67
60058;PMS7003;45932;50.658;3.022;2022-09-13T14:43:23;29.33;27.33;19.00
60058;PMS7003;45932;50.658;3.022;2022-09-13T14:46:13;32.67;29.33;20.00
60058;PMS7003;45932;50.658;3.022;2022-09-13T14:48:48;26.67;24.67;17.67
60058;PMS7003;45932;50.658;3.022;2022-09-13T14:53:48;28.67;28.67;20.33
60058;PMS7003;45932;50.658;3.022;2022-09-13T14:56:34;30.67;27.67;20.00
60058;PMS7003;45932;50.658;3.022;2022-09-13T14:59:06;29.67;29.67;21.33
60058;PMS7003;45932;50.658;3.022;2022-09-13T15:01:39;31.00;27.00;20.33
60058;PMS7003;45932;50.658;3.022;2022-09-13T15:04:05;31.00;28.67;18.33
60058;PMS7003;45932;50.658;3.022;2022-09-13T15:06:35;33.67;28.67;20.67
60058;PMS7003;45932;50.658;3.022;2022-09-13T15:11:35;25.00;23.00;17.33
60058;PMS7003;45932;50.658;3.022;2022-09-13T15:16:45;30.00;29.67;19.67
60058;PMS7003;45932;50.658;3.022;2022-09-13T15:21:47;31.33;29.00;20.00
60058;PMS7003;45932;50.658;3.022;2022-09-13T15:24:24;27.00;25.33;20.00
60058;PMS7003;45932;50.658;3.022;2022-09-13T15:27:02;30.67;29.67;20.33
60058;PMS7003;45932;50.658;3.022;2022-09-13T15:29:38;29.67;25.00;18.67
60058;PMS7003;45932;50.658;3.022;2022-09-13T15:32:04;26.00;26.00;18.67
60058;PMS7003;45932;50.658;3.022;2022-09-13T15:34:30;32.00;28.33;20.00
60058;PMS7003;45932;50.658;3.022;2022-09-13T15:39:24;31.00;29.00;20.67
60058;PMS7003;45932;50.658;3.022;2022-09-13T15:42:08;32.00;28.67;18.00
60058;PMS7003;45932;50.658;3.022;2022-09-13T15:44:33;31.33;31.00;20.00
60058;PMS7003;45932;50.658;3.022;2022-09-13T15:46:59;30.67;28.00;20.33
60058;PMS7003;45932;50.658;3.022;2022-09-13T15:49:28;35.00;32.00;19.67
60058;PMS7003;45932;50.658;3.022;2022-09-13T15:51:55;31.33;26.00;19.67
60058;PMS7003;45932;50.658;3.022;2022-09-13T15:54:22;32.67;31.33;20.33
60058;PMS7003;45932;50.658;3.022;2022-09-13T15:56:51;30.33;29.00;20.00
60058;PMS7003;45932;50.658;3.022;2022-09-13T15:59:18;31.67;28.33;19.33
60058;PMS7003;45932;50.658;3.022;2022-09-13T16:01:46;29.00;27.67;20.33
60058;PMS7003;45932;50.658;3.022;2022-09-13T16:04:13;31.67;25.67;19.33
60058;PMS7003;45932;50.658;3.022;2022-09-13T16:06:39;36.67;31.33;21.00
60058;PMS7003;45932;50.658;3.022;2022-09-13T16:09:38;38.00;34.33;23.33
60058;PMS7003;45932;50.658;3.022;2022-09-13T16:11:56;32.33;28.67;21.00
60058;PMS7003;45932;50.658;3.022;2022-09-13T16:14:21;34.33;31.00;21.33
60058;PMS7003;45932;50.658;3.022;2022-09-13T16:16:47;33.67;32.67;20.67
60058;PMS7003;45932;50.658;3.022;2022-09-13T16:19:19;36.67;32.33;20.67
60058;PMS7003;45932;50.658;3.022;2022-09-13T16:21:46;33.00;30.33;20.00
60058;PMS7003;45932;50.658;3.022;2022-09-13T16:24:12;36.00;33.33;21.33
60058;PMS7003;45932;50.658;3.022;2022-09-13T16:26:38;34.67;31.67;21.33
60058;PMS7003;45932;50.658;3.022;2022-09-13T16:29:04;38.33;34.00;23.33
60058;PMS7003;45932;50.658;3.022;2022-09-13T16:31:30;32.33;29.67;20.33
60058;PMS7003;45932;50.658;3.022;2022-09-13T16:33:55;33.00;29.00;21.33
60058;PMS7003;45932;50.658;3.022;2022-09-13T16:36:21;37.67;32.33;22.33
60058;PMS7003;45932;50.658;3.022;2022-09-13T16:38:46;35.67;32.67;22.00
60058;PMS7003;45932;50.658;3.022;2022-09-13T16:41:12;40.33;34.67;24.00
60058;PMS7003;45932;50.658;3.022;2022-09-13T16:43:37;34.33;32.00;23.00
60058;PMS7003;45932;50.658;3.022;2022-09-13T16:46:09;36.50;32.00;22.50
60058;PMS7003;45932;50.658;3.022;2022-09-13T16:48:37;32.67;29.00;18.33
60058;PMS7003;45932;50.658;3.022;2022-09-13T16:51:03;32.67;31.00;20.33
60058;PMS7003;45932;50.658;3.022;2022-09-13T16:53:32;33.00;32.00;22.00
60058;PMS7003;45932;50.658;3.022;2022-09-13T16:56:09;32.33;30.00;20.67
60058;PMS7003;45932;50.658;3.022;2022-09-13T16:58:37;29.67;28.67;20.33
60058;PMS7003;45932;50.658;3.022;2022-09-13T17:01:04;28.67;27.67;20.33
60058;PMS7003;45932;50.658;3.022;2022-09-13T17:03:30;29.33;29.33;18.33
60058;PMS7003;45932;50.658;3.022;2022-09-13T17:05:57;30.00;28.67;19.33
60058;PMS7003;45932;50.658;3.022;2022-09-13T17:08:24;32.00;30.67;20.33
60058;PMS7003;45932;50.658;3.022;2022-09-13T17:10:49;31.67;30.67;20.67
60058;PMS7003;45932;50.658;3.022;2022-09-13T17:13:14;32.67;27.33;19.67
60058;PMS7003;45932;50.658;3.022;2022-09-13T17:15:40;28.33;27.67;20.33
60058;PMS7003;45932;50.658;3.022;2022-09-13T17:18:05;30.67;29.67;19.00
60058;PMS7003;45932;50.658;3.022;2022-09-13T17:20:31;35.33;31.33;19.67
60058;PMS7003;45932;50.658;3.022;2022-09-13T17:22:56;29.00;26.00;17.00
60058;PMS7003;45932;50.658;3.022;2022-09-13T17:25:22;25.00;23.67;17.00
60058;PMS7003;45932;50.658;3.022;2022-09-13T17:27:48;21.00;21.00;15.67
60058;PMS7003;45932;50.658;3.022;2022-09-13T17:30:14;25.67;23.67;15.67
60058;PMS7003;45932;50.658;3.022;2022-09-13T17:32:39;22.00;20.33;15.00
60058;PMS7003;45932;50.658;3.022;2022-09-13T17:35:04;22.00;21.67;15.33